Laredo International Airport
KLRD : now visible

Airfield :











YOU CAN JOIN US ON...

 
LOGIN :

Register | Disclaimer

   EN    FR    IT 

 









Legend :    VFR   Marginal VFR   IFR   Intensive IFR   Very Intensive IFR
Visi :
Ceiling :
>= 8 km
>= 3000ft
5 to 8 km
1000 to 3000 ft
1500m to 5 km
500 to 1000 ft
800 to 1500m
200 to 500 ft
< 800m
< 200 ft
Symbols :   Thunderstorms  Fog  Heavy snow  Heavy precipitations  Wind > 20 kt






- Airport Elevation : 508 ft
- IATA code : LRD


KLRD - Laredo International

CURRENT METAR :
  • 121710Z 03007KT 4SM -RA BR OVC006 18/17 A3018 RMK AO2 CIG 004V009 P0001

EXPIRED METARs :
  • 121656Z 05007KT 2SM -RA BR BKN008 OVC011 18/17 A3018 RMK AO2 RAB28 CIG 005V009 SLP218 P0001 T01780172
  • 121556Z 03014KT 10SM OVC008 18/17 A3015 RMK AO2 SLP208 T01830172
  • 121456Z 03011KT 8SM OVC006 19/18 A3012 RMK AO2 RAE37 CIG 006V011 SLP199 P0000 60001 T01890178 53027

TAF KLRD
Valid from the 12 at 18:00 until the 13 at 18:00 UTC


121730Z 1218/1318 03012KT P6SM VCSH OVC008
FM122100 01012KT P6SM OVC020
FM130300 36005KT P6SM BKN035
FM130900 36004KT P6SM BKN025
FM131300 01010KT P6SM SCT040
KZHU FIR / North America



MET'MAP, your aeronautical weather chart ! - Copyright ORBIFLY December 2007 - Disclaimer

ORBIFLY MET'MAP TEAM :

Programming & Development : Alexandra Zaïnal
Concept & original design : Baudouin d'Aumeries
Assistance for programming : Marc-Olivier Méhu
Technical & hardware support : Manuel Goepfert

Contact : metmap@orbifly.com




SOURCES & CREDITS :

   NOAA       Earth
Advisory